createdAt,value
2018-11-13T00:00:10.353Z,57.1
2018-11-13T00:01:00.471Z,57.2
2018-11-13T00:01:50.758Z,57.1
2018-11-13T00:02:40.938Z,57.1
2018-11-13T00:03:31.627Z,57.1
2018-11-13T00:04:21.527Z,57.1
2018-11-13T00:05:11.740Z,57.1
2018-11-13T00:06:01.845Z,57.1
2018-11-13T00:06:51.250Z,57.1
2018-11-13T00:25:05.556Z,56.9
2018-11-13T00:25:56.079Z,56.9
2018-11-13T00:26:46.009Z,56.9
2018-11-13T00:27:36.990Z,56.9
2018-11-13T00:28:25.481Z,56.9
2018-11-13T00:29:15.782Z,56.9
2018-11-13T00:30:06.646Z,56.9
2018-11-13T00:30:56.685Z,56.9
2018-11-13T00:31:46.183Z,56.9
2018-11-13T00:32:36.242Z,56.9
2018-11-13T00:33:25.246Z,56.9
2018-11-13T00:34:16.400Z,56.9
2018-11-13T00:35:06.485Z,56.9
2018-11-13T00:35:55.695Z,56.9
2018-11-13T00:36:46.363Z,56.9
2018-11-13T00:37:36.928Z,56.8
2018-11-13T00:38:26.435Z,56.9
2018-11-13T00:39:16.209Z,56.8
2018-11-13T00:40:06.476Z,56.8
2018-11-13T00:40:56.588Z,56.8
2018-11-13T00:41:47.190Z,56.8
2018-11-13T00:42:36.937Z,56.8
2018-11-13T00:43:25.777Z,56.8
2018-11-13T00:44:16.876Z,56.8
2018-11-13T00:45:06.922Z,56.8
2018-11-13T00:46:00.230Z,56.8
2018-11-13T00:46:47.164Z,56.8
2018-11-13T00:47:36.832Z,56.8
2018-11-13T00:48:30.442Z,56.8
2018-11-13T00:49:17.789Z,56.8
2018-11-13T00:50:08.376Z,56.8
2018-11-13T00:50:59.342Z,56.8
2018-11-13T00:51:48.184Z,56.8
2018-11-13T00:52:36.924Z,56.8
2018-11-13T00:53:26.961Z,56.8
2018-11-13T00:54:17.670Z,56.7
2018-11-13T00:55:08.991Z,56.7
2018-11-13T00:55:57.844Z,56.7
2018-11-13T00:56:49.306Z,56.7
2018-11-13T00:57:38.310Z,56.7
2018-11-13T00:58:28.391Z,56.7
2018-11-13T00:59:19.071Z,56.7
2018-11-13T01:00:08.697Z,56.6
2018-11-13T01:00:59.548Z,56.7
2018-11-13T01:01:48.392Z,56.7
2018-11-13T01:02:38.773Z,56.6
2018-11-13T01:03:28.455Z,56.6
2018-11-13T01:04:18.493Z,56.6
2018-11-13T01:05:09.990Z,56.6
2018-11-13T01:05:58.112Z,56.6
2018-11-13T01:06:48.968Z,56.6
2018-11-13T01:07:39.509Z,56.6
2018-11-13T01:08:29.165Z,56.6
2018-11-13T01:09:18.113Z,56.6
2018-11-13T01:10:09.032Z,56.6
2018-11-13T01:10:59.130Z,56.6
2018-11-13T01:11:49.540Z,56.6
2018-11-13T01:12:39.519Z,56.6
2018-11-13T01:13:31.369Z,56.6
2018-11-13T01:14:20.080Z,56.6
2018-11-13T01:15:11.827Z,56.6
2018-11-13T01:15:59.049Z,56.6
2018-11-13T01:16:49.167Z,56.5
2018-11-13T01:17:39.535Z,56.5
2018-11-13T01:18:29.547Z,56.5
2018-11-13T01:19:19.349Z,56.5
2018-11-13T01:20:09.927Z,56.5
2018-11-13T01:21:00.752Z,56.5
2018-11-13T01:21:50.329Z,56.5
2018-11-13T01:22:41.098Z,56.5
2018-11-13T01:23:30.740Z,56.5
2018-11-13T01:24:21.279Z,56.4
2018-11-13T01:25:09.696Z,56.4
2018-11-13T01:26:00.222Z,56.4
2018-11-13T01:26:50.640Z,56.4
2018-11-13T01:27:40.739Z,56.4
2018-11-13T01:28:30.519Z,56.4
2018-11-13T01:29:20.062Z,56.4
2018-11-13T01:30:10.176Z,56.4
2018-11-13T01:31:00.574Z,56.4
2018-11-13T01:31:50.551Z,56.4
2018-11-13T01:32:39.788Z,56.4
2018-11-13T01:33:30.504Z,56.4
2018-11-13T01:34:20.969Z,56.4
2018-11-13T01:35:10.718Z,56.4
2018-11-13T01:36:01.209Z,56.4
2018-11-13T01:36:50.086Z,56.4
2018-11-13T01:37:41.222Z,56.4
2018-11-13T01:38:30.738Z,56.4
2018-11-13T01:39:21.390Z,56.4
2018-11-13T01:40:10.193Z,56.4
2018-11-13T01:41:00.445Z,56.3
2018-11-13T01:41:53.191Z,56.3
2018-11-13T01:42:40.573Z,56.3
2018-11-13T01:43:30.621Z,56.3
2018-11-13T01:44:20.689Z,56.3
2018-11-13T01:45:11.033Z,56.3
2018-11-13T01:46:01.610Z,56.3
2018-11-13T01:46:50.958Z,56.3
2018-11-13T01:47:41.436Z,56.3
2018-11-13T01:48:31.555Z,56.3
2018-11-13T01:49:22.792Z,56.3
2018-11-13T01:50:10.623Z,56.3
2018-11-13T01:51:00.689Z,56.3
2018-11-13T01:51:52.513Z,56.3
2018-11-13T01:52:41.765Z,56.3
2018-11-13T01:53:31.822Z,56.3
2018-11-13T01:54:21.930Z,56.3
2018-11-13T01:55:10.981Z,56.3
2018-11-13T01:56:01.707Z,56.2
2018-11-13T01:56:52.013Z,56.3
2018-11-13T01:57:42.417Z,56.2
2018-11-13T01:58:31.906Z,56.2
2018-11-13T01:59:22.296Z,56.2
2018-11-13T02:00:12.567Z,56.2
2018-11-13T02:01:02.741Z,56.2
2018-11-13T02:01:52.669Z,56.2
2018-11-13T02:02:43.129Z,56.2
2018-11-13T02:03:32.364Z,56.1
2018-11-13T02:04:21.714Z,56.2
2018-11-13T02:05:12.757Z,56.1
2018-11-13T02:06:02.356Z,56.1
2018-11-13T02:06:52.211Z,56.1
2018-11-13T02:07:43.072Z,56.1
2018-11-13T02:08:32.614Z,56.1
2018-11-13T02:09:23.206Z,56.1
2018-11-13T02:10:13.872Z,56.1
2018-11-13T02:11:02.896Z,56.1
2018-11-13T02:11:53.570Z,56.1
2018-11-13T02:12:43.381Z,56.1
2018-11-13T02:13:33.203Z,56.1
2018-11-13T02:14:23.339Z,56.1
2018-11-13T02:15:13.893Z,56.1
2018-11-13T02:16:04.521Z,56.1
2018-11-13T02:16:53.821Z,56.1
2018-11-13T02:17:44.056Z,56.1
2018-11-13T02:18:33.078Z,56.1
2018-11-13T02:19:23.818Z,56.1
2018-11-13T02:20:12.706Z,56
2018-11-13T02:21:02.563Z,56
2018-11-13T02:21:53.177Z,56.1
2018-11-13T02:22:43.697Z,56
2018-11-13T02:23:33.487Z,56
2018-11-13T02:24:22.765Z,56
2018-11-13T02:25:13.840Z,56
2018-11-13T02:26:04.352Z,56
2018-11-13T02:26:54.421Z,56
2018-11-13T02:27:44.800Z,56
2018-11-13T02:28:34.290Z,56
2018-11-13T02:29:24.900Z,55.9
2018-11-13T02:30:14.671Z,56
2018-11-13T02:31:05.027Z,55.9
2018-11-13T02:31:55.067Z,55.9
2018-11-13T02:32:45.227Z,55.9
2018-11-13T02:33:34.615Z,55.9
2018-11-13T02:34:24.409Z,55.9
2018-11-13T02:35:15.410Z,55.9
2018-11-13T02:36:04.894Z,55.9
2018-11-13T02:36:55.485Z,55.9
2018-11-13T02:37:44.948Z,55.9
2018-11-13T02:38:35.172Z,55.9
2018-11-13T02:39:25.932Z,55.9
2018-11-13T02:40:15.419Z,55.9
2018-11-13T02:41:04.987Z,55.9
2018-11-13T02:41:56.036Z,55.9
2018-11-13T02:42:45.522Z,55.9
2018-11-13T02:43:35.157Z,55.9
2018-11-13T02:44:25.775Z,55.9
2018-11-13T02:45:15.555Z,55.9
2018-11-13T02:46:05.241Z,55.8
2018-11-13T02:46:55.919Z,55.8
2018-11-13T02:47:45.664Z,55.8
2018-11-13T02:48:34.819Z,55.8
2018-11-13T02:49:26.471Z,55.8
2018-11-13T02:50:15.435Z,55.8
2018-11-13T02:51:07.034Z,55.8
2018-11-13T02:51:57.223Z,55.8
2018-11-13T02:52:46.550Z,55.8
2018-11-13T02:53:35.641Z,55.8
2018-11-13T02:54:26.979Z,55.8
2018-11-13T02:55:16.509Z,55.8
2018-11-13T02:56:05.733Z,55.8
2018-11-13T02:56:56.471Z,55.8
2018-11-13T02:57:46.716Z,55.8
2018-11-13T02:58:37.292Z,55.8
2018-11-13T02:59:27.071Z,55.8
2018-11-13T03:00:17.093Z,55.8
2018-11-13T03:01:06.641Z,55.8
2018-11-13T03:01:56.740Z,55.7
2018-11-13T03:02:47.030Z,55.7
2018-11-13T03:03:37.233Z,55.7
2018-11-13T03:04:26.645Z,55.7
2018-11-13T03:05:18.076Z,55.7
2018-11-13T03:06:07.493Z,55.7
2018-11-13T03:06:57.005Z,55.7
2018-11-13T03:07:47.632Z,55.7
2018-11-13T03:08:37.627Z,55.7
2018-11-13T03:09:27.276Z,55.7
2018-11-13T03:10:17.283Z,55.6
2018-11-13T03:11:08.178Z,55.6
2018-11-13T03:11:57.182Z,55.6
2018-11-13T03:12:48.110Z,55.6
2018-11-13T03:13:38.261Z,55.6
2018-11-13T03:14:27.153Z,55.6
2018-11-13T03:15:17.961Z,55.6
2018-11-13T03:16:08.229Z,55.6
2018-11-13T03:16:58.549Z,55.6
2018-11-13T03:17:48.178Z,55.6
2018-11-13T03:18:37.954Z,55.6
2018-11-13T03:19:27.478Z,55.6
2018-11-13T03:20:17.509Z,55.6
2018-11-13T03:21:08.215Z,55.6
2018-11-13T03:21:58.129Z,55.6
2018-11-13T03:22:48.120Z,55.6
2018-11-13T03:23:38.479Z,55.6
2018-11-13T03:24:28.854Z,55.6
2018-11-13T03:25:18.618Z,55.6
2018-11-13T03:26:09.182Z,55.6
2018-11-13T03:26:58.411Z,55.5
2018-11-13T03:27:48.599Z,55.5
2018-11-13T03:28:38.840Z,55.5
2018-11-13T03:29:28.919Z,55.5
2018-11-13T03:30:19.254Z,55.5
2018-11-13T03:31:10.012Z,55.5
2018-11-13T03:31:59.689Z,55.5
2018-11-13T03:32:48.981Z,55.5
2018-11-13T03:33:39.776Z,55.5
2018-11-13T03:34:28.977Z,55.5
2018-11-13T03:35:18.772Z,55.4
2018-11-13T03:36:09.394Z,55.4
2018-11-13T03:36:59.648Z,55.4
2018-11-13T03:37:49.203Z,55.4
2018-11-13T03:38:39.846Z,55.4
2018-11-13T03:39:29.975Z,55.4
2018-11-13T03:40:19.692Z,55.4
2018-11-13T03:41:09.363Z,55.4
2018-11-13T03:41:59.608Z,55.4
2018-11-13T03:42:49.939Z,55.4
2018-11-13T03:43:40.197Z,55.4
2018-11-13T03:44:30.048Z,55.4
2018-11-13T03:45:19.261Z,55.4
2018-11-13T03:46:09.273Z,55.4
2018-11-13T03:46:59.760Z,55.4
2018-11-13T03:47:50.027Z,55.4
2018-11-13T03:48:40.018Z,55.4
2018-11-13T03:49:29.740Z,55.4
2018-11-13T03:50:19.711Z,55.4
2018-11-13T03:51:10.428Z,55.3
2018-11-13T03:52:00.592Z,55.3
2018-11-13T03:52:50.086Z,55.3
2018-11-13T03:53:39.962Z,55.3
2018-11-13T03:54:29.992Z,55.3
2018-11-13T03:55:20.346Z,55.3
2018-11-13T03:56:10.222Z,55.3
2018-11-13T03:57:00.137Z,55.3
2018-11-13T03:57:51.174Z,55.3
2018-11-13T03:58:41.245Z,55.3
2018-11-13T03:59:30.362Z,55.3
2018-11-13T04:00:21.489Z,55.3
2018-11-13T04:01:11.199Z,55.3
2018-11-13T04:02:00.666Z,55.3
2018-11-13T04:02:51.836Z,55.3
2018-11-13T04:03:41.943Z,55.3
2018-11-13T04:04:31.016Z,55.3
2018-11-13T04:05:21.754Z,55.3
2018-11-13T04:06:11.529Z,55.3
2018-11-13T04:07:01.856Z,55.2
2018-11-13T04:07:51.968Z,55.3
2018-11-13T04:08:42.195Z,55.2
2018-11-13T04:09:31.844Z,55.2
2018-11-13T04:10:21.039Z,55.2
2018-11-13T04:11:12.494Z,55.2
2018-11-13T04:12:02.244Z,55.2
2018-11-13T04:12:53.143Z,55.2
2018-11-13T04:13:41.770Z,55.2
2018-11-13T04:14:31.828Z,55.2
2018-11-13T04:15:22.283Z,55.1
2018-11-13T04:16:12.813Z,55.1
2018-11-13T04:17:01.831Z,55.1
2018-11-13T04:17:53.478Z,55.2
2018-11-13T04:18:42.120Z,55.1
2018-11-13T04:19:32.453Z,55.1
2018-11-13T04:20:23.110Z,55.1
2018-11-13T04:21:12.589Z,55.1
2018-11-13T04:22:02.393Z,55.1
2018-11-13T04:22:52.382Z,55.1
2018-11-13T04:23:43.063Z,55.1
2018-11-13T04:24:32.808Z,55.1
2018-11-13T04:25:22.924Z,55.1
2018-11-13T04:26:13.214Z,55.1
2018-11-13T04:27:03.267Z,55.1
2018-11-13T04:27:52.840Z,55.1
2018-11-13T04:28:42.812Z,55.1
2018-11-13T04:29:32.976Z,55.1
2018-11-13T04:30:24.088Z,55.1
2018-11-13T04:31:13.315Z,55.1
2018-11-13T04:32:03.762Z,55
2018-11-13T04:32:53.579Z,55.1
2018-11-13T04:33:44.354Z,55
2018-11-13T04:34:33.539Z,55
2018-11-13T04:35:23.162Z,55
2018-11-13T04:36:13.640Z,55
2018-11-13T04:37:04.308Z,55
2018-11-13T04:54:19.876Z,54.9
2018-11-13T04:55:09.466Z,54.9
2018-11-13T04:55:59.312Z,54.9
2018-11-13T04:56:48.983Z,54.9
2018-11-13T04:57:39.338Z,54.9
2018-11-13T04:58:29.375Z,54.9
2018-11-13T04:59:19.448Z,54.8
2018-11-13T05:00:09.555Z,54.9
2018-11-13T05:00:59.353Z,54.8
2018-11-13T05:01:49.432Z,54.8
2018-11-13T05:02:39.720Z,54.8
2018-11-13T05:03:29.551Z,54.8
2018-11-13T05:04:18.978Z,54.8
2018-11-13T05:05:09.815Z,54.8
2018-11-13T05:05:59.640Z,54.8
2018-11-13T05:06:49.431Z,54.8
2018-11-13T05:07:38.863Z,54.8
2018-11-13T05:08:29.883Z,54.8
2018-11-13T05:09:20.965Z,54.8
2018-11-13T05:10:11.707Z,54.8
2018-11-13T05:10:58.860Z,54.8
2018-11-13T05:11:48.776Z,54.7
2018-11-13T05:12:40.380Z,54.7
2018-11-13T05:13:29.860Z,54.7
2018-11-13T05:14:21.152Z,54.7
2018-11-13T05:15:10.262Z,54.7
2018-11-13T05:16:00.632Z,54.7
2018-11-13T05:16:50.168Z,54.7
2018-11-13T05:17:40.753Z,54.7
2018-11-13T05:18:31.135Z,54.7
2018-11-13T05:19:20.202Z,54.6
2018-11-13T05:20:10.575Z,54.6
2018-11-13T05:21:00.702Z,54.6
2018-11-13T05:21:51.161Z,54.6
2018-11-13T05:22:40.827Z,54.6
2018-11-13T05:23:31.480Z,54.6
2018-11-13T05:24:20.394Z,54.6
2018-11-13T05:25:11.029Z,54.6
2018-11-13T05:26:00.839Z,54.6
2018-11-13T05:26:50.421Z,54.6
2018-11-13T05:27:40.789Z,54.6
2018-11-13T05:28:30.625Z,54.6
2018-11-13T05:29:21.654Z,54.6
2018-11-13T05:30:11.313Z,54.6
2018-11-13T05:31:00.446Z,54.6
2018-11-13T05:31:51.299Z,54.6
2018-11-13T05:32:41.096Z,54.6
2018-11-13T05:33:31.599Z,54.6
2018-11-13T05:34:21.652Z,54.5
2018-11-13T05:35:12.104Z,54.5
2018-11-13T05:36:00.968Z,54.5
2018-11-13T05:36:51.162Z,54.5
2018-11-13T05:37:41.989Z,54.6
2018-11-13T05:38:31.491Z,54.5
2018-11-13T05:39:20.956Z,54.5
2018-11-13T05:40:11.629Z,54.5
2018-11-13T05:41:01.848Z,54.5
2018-11-13T05:41:51.611Z,54.5
2018-11-13T05:42:42.861Z,54.4
2018-11-13T05:43:31.644Z,54.5
2018-11-13T05:44:21.491Z,54.4
2018-11-13T05:45:12.641Z,54.4
2018-11-13T05:46:02.495Z,54.4
2018-11-13T05:46:52.246Z,54.4
2018-11-13T05:47:42.400Z,54.4
2018-11-13T05:48:32.358Z,54.4
2018-11-13T05:49:21.391Z,54.4
2018-11-13T05:50:12.055Z,54.4
2018-11-13T05:51:02.101Z,54.4
2018-11-13T05:51:52.025Z,54.4
2018-11-13T05:52:42.085Z,54.4
2018-11-13T05:53:31.477Z,54.4
2018-11-13T05:54:22.580Z,54.4
2018-11-13T05:55:13.410Z,54.4
2018-11-13T05:56:02.947Z,54.4
2018-11-13T05:56:52.787Z,54.3
2018-11-13T05:57:43.750Z,54.4
2018-11-13T05:58:32.433Z,54.3
2018-11-13T05:59:23.005Z,54.3
2018-11-13T06:00:12.118Z,54.3
2018-11-13T06:01:02.621Z,54.3
2018-11-13T06:01:52.565Z,54.3
2018-11-13T06:02:43.015Z,54.3
2018-11-13T06:03:33.532Z,54.3
2018-11-13T06:04:23.299Z,54.3
2018-11-13T06:05:14.115Z,54.2
2018-11-13T06:06:03.711Z,54.2
2018-11-13T06:06:54.514Z,54.1
2018-11-13T06:07:43.527Z,54.1
2018-11-13T06:08:34.426Z,54.1
2018-11-13T06:09:24.440Z,54.1
2018-11-13T06:10:14.875Z,54.1
2018-11-13T06:11:04.292Z,54.1
2018-11-13T06:11:55.184Z,54.1
2018-11-13T06:12:44.012Z,54
2018-11-13T06:13:34.259Z,54
2018-11-13T06:14:25.421Z,54
2018-11-13T06:15:14.492Z,54
2018-11-13T06:16:04.426Z,54
2018-11-13T06:16:54.103Z,54
2018-11-13T06:17:44.306Z,54
2018-11-13T06:18:34.331Z,54
2018-11-13T06:19:24.851Z,54
2018-11-13T06:20:14.921Z,53.9
2018-11-13T06:21:04.781Z,53.9
2018-11-13T06:21:55.041Z,53.9
2018-11-13T06:22:45.391Z,53.9
2018-11-13T06:23:35.361Z,53.9
2018-11-13T06:24:25.556Z,53.9
2018-11-13T06:25:14.843Z,53.9
2018-11-13T06:26:05.668Z,53.9
2018-11-13T06:26:55.406Z,53.9
2018-11-13T06:27:44.438Z,53.9
2018-11-13T06:28:35.163Z,53.9
2018-11-13T06:29:25.354Z,53.9
2018-11-13T06:30:15.455Z,53.9
2018-11-13T06:31:05.425Z,53.9
2018-11-13T06:31:55.653Z,53.9
2018-11-13T06:32:45.607Z,53.9
2018-11-13T06:33:36.495Z,53.9
2018-11-13T06:34:25.782Z,53.9
2018-11-13T06:35:16.024Z,53.9
2018-11-13T06:36:06.148Z,53.8
2018-11-13T06:36:55.439Z,53.8
2018-11-13T06:37:47.012Z,53.8
2018-11-13T06:38:36.005Z,53.8
2018-11-13T06:39:25.479Z,53.8
2018-11-13T06:40:16.135Z,53.8
2018-11-13T06:41:06.130Z,53.8
2018-11-13T06:41:55.782Z,53.8
2018-11-13T06:42:45.912Z,53.8
2018-11-13T06:43:36.339Z,53.8
2018-11-13T06:44:26.139Z,53.8
2018-11-13T06:45:15.662Z,53.8
2018-11-13T06:46:07.359Z,53.8
2018-11-13T06:46:56.053Z,53.8
2018-11-13T06:47:46.714Z,53.8
2018-11-13T06:48:35.843Z,53.7
2018-11-13T06:49:27.778Z,53.8
2018-11-13T06:50:17.700Z,53.7
2018-11-13T06:51:07.390Z,53.7
2018-11-13T06:51:57.062Z,53.7
2018-11-13T06:52:47.103Z,53.7
2018-11-13T06:53:36.006Z,53.7
2018-11-13T06:54:26.597Z,53.6
2018-11-13T06:55:17.108Z,53.7
2018-11-13T06:56:06.996Z,53.6
2018-11-13T06:56:57.052Z,53.6
2018-11-13T06:57:47.005Z,53.6
2018-11-13T06:58:37.611Z,53.6
2018-11-13T06:59:27.475Z,53.6
2018-11-13T07:00:18.070Z,53.6
2018-11-13T07:01:07.465Z,53.6
2018-11-13T07:01:57.710Z,53.6
2018-11-13T07:02:47.909Z,53.6
2018-11-13T07:03:37.778Z,53.6
2018-11-13T07:04:27.680Z,53.6
2018-11-13T07:05:19.208Z,53.6
2018-11-13T07:06:07.975Z,53.6
2018-11-13T07:06:58.520Z,53.6
2018-11-13T07:07:47.175Z,53.5
2018-11-13T07:08:38.031Z,53.6
2018-11-13T07:09:28.132Z,53.5
2018-11-13T07:10:18.180Z,53.5
2018-11-13T07:11:08.251Z,53.5
2018-11-13T07:11:58.121Z,53.5
2018-11-13T07:12:49.028Z,53.5
2018-11-13T07:13:38.101Z,53.5
2018-11-13T07:14:29.163Z,53.5
2018-11-13T07:15:18.045Z,53.5
2018-11-13T07:16:08.619Z,53.5
2018-11-13T07:16:59.253Z,53.4
2018-11-13T07:17:49.194Z,53.4
2018-11-13T07:18:39.190Z,53.4
2018-11-13T07:19:28.290Z,53.4
2018-11-13T07:20:18.822Z,53.4
2018-11-13T07:21:08.793Z,53.4
2018-11-13T07:21:58.506Z,53.4
2018-11-13T07:22:48.610Z,53.4
2018-11-13T07:23:39.355Z,53.4
2018-11-13T07:24:29.204Z,53.4
2018-11-13T07:25:20.081Z,53.4
2018-11-13T07:26:09.435Z,53.4
2018-11-13T07:27:00.063Z,53.4
2018-11-13T07:27:50.022Z,53.4
2018-11-13T07:28:39.120Z,53.4
2018-11-13T07:29:29.450Z,53.4
2018-11-13T07:30:19.227Z,53.4
2018-11-13T07:31:10.550Z,53.4
2018-11-13T07:32:00.705Z,53.4
2018-11-13T07:32:50.911Z,53.4
2018-11-13T07:33:40.563Z,53.3
2018-11-13T07:34:30.552Z,53.4
2018-11-13T07:35:20.285Z,53.3
2018-11-13T07:36:08.802Z,53.3
2018-11-13T07:37:00.177Z,53.3
2018-11-13T07:37:49.949Z,53.3
2018-11-13T07:38:40.109Z,53.3
2018-11-13T07:39:30.847Z,53.3
2018-11-13T07:40:21.002Z,53.3
2018-11-13T07:41:10.848Z,53.3
2018-11-13T07:42:00.994Z,53.3
2018-11-13T07:42:51.077Z,53.3
2018-11-13T07:43:41.120Z,53.3
2018-11-13T07:44:30.433Z,53.3
2018-11-13T07:45:21.330Z,53.3
2018-11-13T07:46:11.314Z,53.3
2018-11-13T07:47:02.116Z,53.3
2018-11-13T07:47:53.612Z,53.2
2018-11-13T07:48:41.424Z,53.2
2018-11-13T07:49:31.321Z,53.2
2018-11-13T07:50:21.382Z,53.2
2018-11-13T07:51:12.113Z,53.2
2018-11-13T07:52:01.934Z,53.2
2018-11-13T07:52:51.593Z,53.2
2018-11-13T07:53:41.121Z,53.2
2018-11-13T07:54:31.759Z,53.2
2018-11-13T07:55:21.938Z,53.2
2018-11-13T07:56:12.090Z,53.2
2018-11-13T07:57:01.866Z,53.1
2018-11-13T07:57:52.417Z,53.1
2018-11-13T07:58:42.397Z,53.1
2018-11-13T07:59:31.980Z,53.1
2018-11-13T08:00:22.295Z,53.1
2018-11-13T08:01:12.081Z,53.1
2018-11-13T08:02:01.665Z,53.1
2018-11-13T08:02:52.290Z,53.1
2018-11-13T08:03:43.255Z,53.1
2018-11-13T08:04:32.313Z,53.1
2018-11-13T08:05:23.241Z,53.1
2018-11-13T08:06:13.157Z,53.1
2018-11-13T08:07:02.533Z,53.1
2018-11-13T08:07:53.147Z,53.1
2018-11-13T08:08:43.179Z,53.1
2018-11-13T08:09:33.443Z,53.1
2018-11-13T08:10:22.665Z,53
2018-11-13T08:11:12.794Z,53
2018-11-13T08:12:02.787Z,53.1
2018-11-13T08:12:54.026Z,53
2018-11-13T08:13:44.174Z,53
2018-11-13T08:14:33.201Z,53
2018-11-13T08:15:23.061Z,53
2018-11-13T08:16:13.148Z,53
2018-11-13T08:17:03.527Z,53
2018-11-13T08:17:53.584Z,52.9
2018-11-13T08:18:43.488Z,52.9
2018-11-13T08:19:33.182Z,53
2018-11-13T08:20:23.189Z,52.9
2018-11-13T08:21:14.949Z,52.9
2018-11-13T08:22:04.642Z,52.9
2018-11-13T08:22:53.910Z,52.9
2018-11-13T08:23:44.251Z,52.9
2018-11-13T08:24:34.067Z,52.9
2018-11-13T08:25:25.407Z,52.9
2018-11-13T08:26:14.178Z,52.9
2018-11-13T08:27:04.232Z,52.9
2018-11-13T08:27:54.223Z,52.9
2018-11-13T08:28:44.595Z,52.9
2018-11-13T08:29:34.738Z,52.9
2018-11-13T08:30:23.698Z,52.9
2018-11-13T08:31:14.796Z,52.9
2018-11-13T08:32:04.358Z,52.9
2018-11-13T08:32:54.343Z,52.9
2018-11-13T08:33:44.536Z,52.9
2018-11-13T08:34:35.299Z,52.9
2018-11-13T08:35:24.243Z,52.8
2018-11-13T08:36:14.155Z,52.8
2018-11-13T08:37:04.658Z,52.8
2018-11-13T08:37:54.800Z,52.8
2018-11-13T08:38:45.219Z,52.8
2018-11-13T08:39:35.119Z,52.8
2018-11-13T08:40:25.393Z,52.8
2018-11-13T08:41:14.963Z,52.8
2018-11-13T08:42:04.564Z,52.8
2018-11-13T08:42:55.383Z,52.8
2018-11-13T08:43:45.671Z,52.8
2018-11-13T08:44:35.081Z,52.8
2018-11-13T08:45:25.228Z,52.8
2018-11-13T08:46:15.943Z,52.8
2018-11-13T08:47:05.900Z,52.8
2018-11-13T08:47:55.241Z,52.8
2018-11-13T08:48:45.124Z,52.8
2018-11-13T08:49:35.378Z,52.8
2018-11-13T08:50:25.934Z,52.8
2018-11-13T08:51:14.918Z,52.7
2018-11-13T08:52:06.537Z,52.7
2018-11-13T08:52:55.886Z,52.7
2018-11-13T09:08:46.562Z,52.6
2018-11-13T09:09:36.884Z,52.6
2018-11-13T09:10:26.969Z,52.6
2018-11-13T09:11:17.542Z,52.6
2018-11-13T09:12:07.724Z,52.6
2018-11-13T09:12:56.602Z,52.6
2018-11-13T09:13:47.075Z,52.5
2018-11-13T09:14:37.052Z,52.6
2018-11-13T09:15:27.182Z,52.5
2018-11-13T09:16:16.844Z,52.5
2018-11-13T09:17:06.677Z,52.5
2018-11-13T09:17:58.133Z,52.5
2018-11-13T09:18:48.279Z,52.5
2018-11-13T09:19:40.352Z,52.5
2018-11-13T09:20:26.879Z,52.5
2018-11-13T09:21:17.756Z,52.5
2018-11-13T09:22:08.359Z,52.4
2018-11-13T09:22:58.162Z,52.5
2018-11-13T09:23:47.760Z,52.4
2018-11-13T09:24:36.823Z,52.4
2018-11-13T09:25:27.556Z,52.4
2018-11-13T09:26:17.919Z,52.4
2018-11-13T09:27:07.873Z,52.4
2018-11-13T09:27:57.746Z,52.4
2018-11-13T09:28:48.234Z,52.4
2018-11-13T09:29:37.896Z,52.4
2018-11-13T09:37:58.674Z,52.3
2018-11-13T09:38:48.995Z,52.3
2018-11-13T09:39:39.299Z,52.3
2018-11-13T09:40:29.712Z,52.3
2018-11-13T09:41:18.672Z,52.3
2018-11-13T09:42:09.228Z,52.3
2018-11-13T09:42:59.360Z,52.3
2018-11-13T09:43:48.418Z,52.3
2018-11-13T09:44:40.237Z,52.3
2018-11-13T09:45:29.549Z,52.3
2018-11-13T09:46:20.308Z,52.3
2018-11-13T09:47:09.582Z,52.3
2018-11-13T09:48:00.121Z,52.3
2018-11-13T09:48:49.997Z,52.3
2018-11-13T09:49:39.613Z,52.3
2018-11-13T09:50:30.078Z,52.3
2018-11-13T09:51:18.644Z,52.3
2018-11-13T09:52:09.782Z,52.3
2018-11-13T09:53:00.296Z,52.3
2018-11-13T09:53:50.471Z,52.3
2018-11-13T09:54:39.819Z,52.3
2018-11-13T09:55:30.411Z,52.2
2018-11-13T09:56:19.902Z,52.3
2018-11-13T09:57:10.332Z,52.2
2018-11-13T09:58:00.651Z,52.2
2018-11-13T09:58:50.062Z,52.2
2018-11-13T09:59:39.916Z,52.2
2018-11-13T10:00:31.777Z,52.2
2018-11-13T10:01:24.128Z,52.2
2018-11-13T10:02:17.224Z,52.2
2018-11-13T10:03:07.604Z,52.1
2018-11-13T10:03:52.909Z,52.1
2018-11-13T10:04:45.946Z,52.1
2018-11-13T10:05:30.812Z,52.1
2018-11-13T10:06:21.785Z,52.1
2018-11-13T10:07:10.808Z,52.1
2018-11-13T10:08:00.895Z,52.1
2018-11-13T10:08:50.596Z,52.1
2018-11-13T10:09:40.908Z,52.1
2018-11-13T10:10:31.109Z,52.1
2018-11-13T10:11:20.661Z,52.1
2018-11-13T10:12:10.886Z,52.1
2018-11-13T10:13:01.509Z,52.1
2018-11-13T10:13:51.824Z,52.1
2018-11-13T10:14:41.007Z,52.1
2018-11-13T10:15:31.617Z,52.1
2018-11-13T10:16:21.235Z,52.1
2018-11-13T10:17:12.208Z,52.1
2018-11-13T10:18:03.071Z,52.1
2018-11-13T10:18:51.405Z,52.1
2018-11-13T10:19:41.718Z,52.1
2018-11-13T10:20:31.017Z,52
2018-11-13T10:21:21.714Z,52
2018-11-13T10:22:12.113Z,52
2018-11-13T10:23:02.276Z,52
2018-11-13T10:23:51.257Z,52
2018-11-13T10:24:41.987Z,52
2018-11-13T10:25:32.098Z,52
2018-11-13T10:26:22.332Z,52
2018-11-13T10:28:02.280Z,52
2018-11-13T10:31:22.294Z,51.9
2018-11-13T10:32:12.559Z,51.8
2018-11-13T10:33:02.702Z,51.9
2018-11-13T10:33:52.969Z,51.8
2018-11-13T10:34:42.462Z,51.9
2018-11-13T10:35:33.330Z,51.9
2018-11-13T10:36:23.166Z,51.9
2018-11-13T10:38:03.261Z,52.1
2018-11-13T10:38:52.744Z,52.1
2018-11-13T10:39:43.527Z,52.1
2018-11-13T10:40:34.992Z,52.1
2018-11-13T10:41:23.829Z,52.2
2018-11-13T10:42:13.075Z,52.3
2018-11-13T10:43:03.480Z,52.3
2018-11-13T10:44:43.668Z,52.4
2018-11-13T10:45:33.446Z,52.5
2018-11-13T10:46:23.849Z,52.5
2018-11-13T10:47:13.452Z,52.6
2018-11-13T10:48:02.496Z,52.6
2018-11-13T10:48:54.257Z,52.7
2018-11-13T10:49:43.373Z,52.8
2018-11-13T10:50:33.993Z,52.9
2018-11-13T10:51:23.724Z,52.9
2018-11-13T10:52:14.053Z,52.9
2018-11-13T10:53:03.485Z,53
2018-11-13T10:53:53.799Z,53.1
2018-11-13T10:54:44.446Z,53.1
2018-11-13T10:55:34.318Z,53.2
2018-11-13T10:56:25.162Z,53.3
2018-11-13T10:57:14.058Z,53.3
2018-11-13T10:58:04.790Z,53.3
2018-11-13T10:58:54.488Z,53.4
2018-11-13T10:59:44.275Z,53.4
2018-11-13T11:00:34.893Z,53.4
2018-11-13T11:01:24.450Z,53.5
2018-11-13T11:02:15.361Z,53.6
2018-11-13T11:03:06.770Z,53.6
2018-11-13T11:03:54.827Z,53.7
2018-11-13T11:04:45.170Z,53.8
2018-11-13T11:05:35.304Z,53.8
2018-11-13T11:06:25.527Z,53.8
2018-11-13T11:07:15.057Z,53.9
2018-11-13T11:08:05.800Z,53.9
2018-11-13T11:08:54.027Z,53.9
2018-11-13T11:09:44.844Z,54
2018-11-13T11:10:35.092Z,54.1
2018-11-13T11:11:25.914Z,54.1
2018-11-13T11:12:15.164Z,54.1
2018-11-13T11:13:06.525Z,54.2
2018-11-13T11:13:57.552Z,54.3
2018-11-13T11:14:45.137Z,54.3
2018-11-13T11:15:35.959Z,54.4
2018-11-13T11:16:26.329Z,54.4
2018-11-13T11:17:15.678Z,54.5
2018-11-13T11:18:05.890Z,54.6
2018-11-13T11:18:57.296Z,54.6
2018-11-13T11:19:46.281Z,54.6
2018-11-13T11:20:36.596Z,54.6
2018-11-13T11:21:26.032Z,54.7
2018-11-13T11:22:16.206Z,54.8
2018-11-13T11:23:06.512Z,54.8
2018-11-13T11:23:57.142Z,54.8
2018-11-13T11:24:46.636Z,54.9
2018-11-13T11:25:35.939Z,54.9
2018-11-13T11:26:27.298Z,55
2018-11-13T11:27:16.815Z,55.1
2018-11-13T11:28:06.002Z,55.1
2018-11-13T11:28:56.967Z,55.1
2018-11-13T11:29:47.283Z,55.2
2018-11-13T11:30:36.823Z,55.2
2018-11-13T11:31:27.106Z,55.3
2018-11-13T11:32:16.630Z,55.3
2018-11-13T11:33:07.038Z,55.3
2018-11-13T11:33:57.254Z,55.4
2018-11-13T11:34:47.328Z,55.5
2018-11-13T11:35:37.683Z,55.5
2018-11-13T11:36:26.040Z,55.6
2018-11-13T11:37:18.068Z,55.6
2018-11-13T11:38:06.565Z,55.7
2018-11-13T11:38:59.906Z,55.7
2018-11-13T11:39:47.592Z,55.8
2018-11-13T11:40:38.050Z,55.8
2018-11-13T11:41:27.545Z,55.8
2018-11-13T11:42:17.392Z,55.8
2018-11-13T11:43:08.148Z,55.9
2018-11-13T11:43:57.977Z,55.9
2018-11-13T11:44:47.775Z,55.9
2018-11-13T11:45:38.142Z,56
2018-11-13T11:46:28.465Z,56
2018-11-13T11:47:17.455Z,56.1
2018-11-13T11:48:08.402Z,56.1
2018-11-13T11:48:57.500Z,56.1
2018-11-13T11:49:48.104Z,56.2
2018-11-13T11:50:38.275Z,56.3
2018-11-13T11:51:27.747Z,56.3
2018-11-13T11:52:17.450Z,56.3
2018-11-13T11:53:08.911Z,56.3
2018-11-13T11:53:59.970Z,56.4
2018-11-13T11:54:49.079Z,56.4
2018-11-13T11:55:38.861Z,56.4
2018-11-13T11:56:27.718Z,56.4
2018-11-13T11:57:18.664Z,56.4
2018-11-13T11:58:08.566Z,56.5
2018-11-13T11:58:58.121Z,56.5
2018-11-13T11:59:48.856Z,56.6
2018-11-13T12:00:39.392Z,56.6
2018-11-13T12:01:28.696Z,56.6
2018-11-13T12:02:19.631Z,56.6
2018-11-13T12:03:09.448Z,56.7
2018-11-13T12:03:58.881Z,56.8
2018-11-13T12:04:49.808Z,56.8
2018-11-13T12:05:38.677Z,56.8
2018-11-13T12:06:29.585Z,56.8
2018-11-13T12:07:17.375Z,56.8
2018-11-13T12:08:09.750Z,56.8
2018-11-13T12:08:58.675Z,56.9
2018-11-13T12:09:49.866Z,56.9